createdAt,value
2023-04-23T00:02:03.236Z,5.32
2023-04-23T00:04:35.041Z,5.32
2023-04-23T00:07:03.443Z,4.80
2023-04-23T00:09:33.398Z,5.45
2023-04-23T00:12:01.929Z,5.85
2023-04-23T00:14:29.096Z,5.47
2023-04-23T00:16:56.023Z,5.00
2023-04-23T00:19:22.760Z,5.03
2023-04-23T00:21:49.442Z,4.80
2023-04-23T00:24:16.185Z,5.05
2023-04-23T00:26:42.809Z,5.25
2023-04-23T00:29:09.483Z,5.40
2023-04-23T00:31:36.241Z,5.55
2023-04-23T00:34:03.437Z,5.35
2023-04-23T00:36:30.223Z,5.25
2023-04-23T00:38:56.921Z,5.93
2023-04-23T00:41:23.786Z,5.45
2023-04-23T00:43:52.778Z,5.25
2023-04-23T00:46:19.458Z,5.78
2023-04-23T00:48:47.151Z,5.70
2023-04-23T00:51:13.915Z,5.82
2023-04-23T00:53:40.561Z,5.75
2023-04-23T00:56:09.042Z,5.32
2023-04-23T00:58:36.280Z,5.35
2023-04-23T01:01:05.046Z,5.25
2023-04-23T01:03:32.911Z,5.35
2023-04-23T01:06:00.161Z,5.57
2023-04-23T01:08:27.188Z,5.35
2023-04-23T01:10:54.830Z,5.20
2023-04-23T01:13:22.523Z,5.00
2023-04-23T01:15:49.748Z,6.20
2023-04-23T01:18:16.440Z,5.38
2023-04-23T01:20:43.821Z,5.82
2023-04-23T01:23:11.150Z,5.38
2023-04-23T01:25:38.157Z,5.40
2023-04-23T01:28:08.273Z,5.53
2023-04-23T01:30:35.801Z,6.03
2023-04-23T01:33:04.509Z,5.57
2023-04-23T01:35:32.028Z,5.60
2023-04-23T01:38:02.622Z,5.07
2023-04-23T01:40:29.672Z,5.60
2023-04-23T01:42:57.730Z,5.03
2023-04-23T01:45:24.732Z,5.65
2023-04-23T01:47:51.783Z,5.55
2023-04-23T01:50:18.577Z,5.70
2023-04-23T01:52:46.461Z,5.90
2023-04-23T01:55:14.182Z,5.38
2023-04-23T01:57:41.006Z,5.63
2023-04-23T02:00:12.308Z,5.50
2023-04-23T02:02:41.201Z,5.72
2023-04-23T02:05:18.772Z,6.10
2023-04-23T02:07:47.091Z,5.30
2023-04-23T02:10:14.289Z,6.32
2023-04-23T02:12:41.730Z,5.30
2023-04-23T02:15:10.436Z,5.65
2023-04-23T02:17:37.584Z,7.18
2023-04-23T02:20:04.914Z,6.63
2023-04-23T02:22:31.716Z,6.28
2023-04-23T02:24:59.134Z,6.70
2023-04-23T02:27:25.956Z,6.32
2023-04-23T02:29:53.557Z,6.97
2023-04-23T02:32:20.627Z,7.22
2023-04-23T02:34:47.321Z,6.95
2023-04-23T02:37:14.170Z,6.90
2023-04-23T02:39:40.797Z,7.25
2023-04-23T02:42:07.455Z,6.90
2023-04-23T02:44:34.109Z,6.60
2023-04-23T02:47:01.094Z,7.32
2023-04-23T02:49:27.921Z,7.50
2023-04-23T02:51:54.524Z,7.93
2023-04-23T02:54:21.328Z,7.65
2023-04-23T02:56:48.046Z,7.80
2023-04-23T02:59:14.694Z,8.02
2023-04-23T03:01:41.500Z,7.50
2023-04-23T03:04:08.667Z,8.07
2023-04-23T03:06:35.870Z,8.75
2023-04-23T03:09:02.891Z,7.45
2023-04-23T03:11:29.488Z,7.18
2023-04-23T03:13:56.257Z,8.10
2023-04-23T03:16:22.998Z,8.00
2023-04-23T03:18:50.003Z,8.25
2023-04-23T03:21:17.019Z,6.63
2023-04-23T03:23:43.725Z,8.13
2023-04-23T03:26:10.519Z,7.55
2023-04-23T03:28:37.215Z,7.88
2023-04-23T03:31:03.891Z,8.63
2023-04-23T03:33:30.917Z,7.28
2023-04-23T03:35:57.506Z,7.65
2023-04-23T03:38:24.104Z,7.35
2023-04-23T03:40:50.929Z,7.47
2023-04-23T03:43:17.669Z,7.60
2023-04-23T03:45:45.365Z,7.43
2023-04-23T03:48:11.983Z,7.72
2023-04-23T03:50:40.567Z,7.70
2023-04-23T03:53:08.219Z,7.57
2023-04-23T03:55:35.033Z,6.90
2023-04-23T03:58:03.418Z,7.13
2023-04-23T04:00:30.362Z,6.75
2023-04-23T04:02:57.384Z,6.82
2023-04-23T04:05:24.320Z,7.28
2023-04-23T04:07:51.079Z,7.13
2023-04-23T04:10:17.875Z,7.68
2023-04-23T04:12:47.755Z,7.35
2023-04-23T04:15:15.310Z,7.25
2023-04-23T04:17:42.027Z,7.53
2023-04-23T04:20:10.223Z,7.32
2023-04-23T04:22:36.957Z,7.80
2023-04-23T04:25:05.281Z,7.82
2023-04-23T04:27:34.933Z,7.30
2023-04-23T04:30:02.539Z,7.55
2023-04-23T04:32:29.187Z,7.13
2023-04-23T04:34:55.844Z,7.03
2023-04-23T04:37:22.504Z,6.63
2023-04-23T04:39:49.361Z,6.88
2023-04-23T04:42:16.747Z,6.60
2023-04-23T04:44:44.050Z,6.95
2023-04-23T04:47:10.935Z,6.75
2023-04-23T04:49:38.292Z,6.32
2023-04-23T04:52:05.192Z,5.55
2023-04-23T04:54:31.968Z,5.20
2023-04-23T04:56:58.697Z,5.47
2023-04-23T04:59:25.293Z,4.30
2023-04-23T05:01:52.011Z,3.90
2023-04-23T05:04:18.899Z,2.80
2023-04-23T05:06:45.873Z,3.60
2023-04-23T05:09:12.537Z,3.42
2023-04-23T05:11:40.460Z,3.53
2023-04-23T05:14:07.070Z,3.85
2023-04-23T05:16:34.637Z,2.58
2023-04-23T05:19:01.441Z,4.13
2023-04-23T05:21:28.410Z,3.05
2023-04-23T05:23:55.578Z,2.92
2023-04-23T05:26:22.327Z,2.38
2023-04-23T05:28:49.160Z,2.47
2023-04-23T05:31:16.103Z,2.35
2023-04-23T05:33:50.010Z,2.42
2023-04-23T05:36:18.195Z,2.88
2023-04-23T05:38:45.057Z,2.60
2023-04-23T05:41:11.776Z,2.75
2023-04-23T05:43:38.499Z,3.13
2023-04-23T05:46:07.559Z,3.35
2023-04-23T05:48:34.904Z,2.65
2023-04-23T05:51:01.806Z,3.08
2023-04-23T05:53:28.804Z,3.33
2023-04-23T05:55:55.501Z,3.40
2023-04-23T05:58:22.194Z,3.47
2023-04-23T06:00:49.875Z,3.17
2023-04-23T06:03:16.768Z,3.47
2023-04-23T06:05:43.656Z,3.20
2023-04-23T06:08:10.571Z,3.60
2023-04-23T06:10:37.462Z,3.88
2023-04-23T06:13:04.231Z,2.85
2023-04-23T06:15:30.945Z,3.38
2023-04-23T06:17:57.845Z,3.10
2023-04-23T06:20:25.507Z,3.90
2023-04-23T06:22:52.270Z,4.10
2023-04-23T06:25:19.018Z,3.78
2023-04-23T06:27:45.812Z,5.05
2023-04-23T06:30:12.806Z,4.20
2023-04-23T06:32:39.724Z,4.05
2023-04-23T06:35:08.278Z,4.00
2023-04-23T06:37:35.331Z,4.32
2023-04-23T06:40:02.102Z,4.07
2023-04-23T06:42:28.717Z,4.43
2023-04-23T06:44:55.716Z,4.68
2023-04-23T06:47:22.421Z,4.35
2023-04-23T06:49:49.016Z,4.15
2023-04-23T06:52:15.744Z,4.55
2023-04-23T06:54:42.566Z,5.47
2023-04-23T06:57:09.802Z,3.85
2023-04-23T06:59:36.518Z,4.35
2023-04-23T07:02:04.140Z,4.88
2023-04-23T07:04:31.168Z,4.72
2023-04-23T07:06:58.229Z,5.38
2023-04-23T07:09:24.883Z,4.90
2023-04-23T07:11:51.631Z,4.07
2023-04-23T07:14:18.449Z,5.60
2023-04-23T07:16:45.158Z,4.88
2023-04-23T07:19:11.968Z,4.93
2023-04-23T07:21:38.639Z,4.45
2023-04-23T07:24:07.361Z,5.40
2023-04-23T07:26:34.785Z,4.57
2023-04-23T07:29:02.127Z,4.18
2023-04-23T07:31:28.956Z,5.40
2023-04-23T07:33:56.396Z,5.03
2023-04-23T07:36:23.555Z,4.80
2023-04-23T07:38:51.124Z,5.30
2023-04-23T07:41:18.421Z,4.50
2023-04-23T07:43:45.531Z,4.22
2023-04-23T07:46:12.625Z,4.22
2023-04-23T07:48:39.353Z,3.72
2023-04-23T07:51:06.765Z,4.93
2023-04-23T07:53:33.830Z,4.53
2023-04-23T07:56:01.054Z,4.47
2023-04-23T07:58:27.950Z,3.78
2023-04-23T08:00:54.603Z,4.65
2023-04-23T08:03:22.373Z,4.20
2023-04-23T08:05:49.170Z,3.40
2023-04-23T08:08:17.143Z,4.25
2023-04-23T08:10:43.738Z,4.25
2023-04-23T08:13:11.227Z,3.67
2023-04-23T08:15:37.953Z,4.28
2023-04-23T08:18:05.084Z,3.42
2023-04-23T08:20:35.019Z,3.70
2023-04-23T08:23:01.890Z,3.90
2023-04-23T08:25:28.592Z,3.80
2023-04-23T08:27:55.234Z,3.70
2023-04-23T08:30:21.999Z,4.07
2023-04-23T08:32:55.308Z,3.65
2023-04-23T08:35:23.076Z,4.80
2023-04-23T08:37:50.030Z,3.45
2023-04-23T08:40:17.086Z,3.67
2023-04-23T08:42:51.063Z,7.93
2023-04-23T08:45:18.333Z,6.95
2023-04-23T08:47:45.147Z,4.40
2023-04-23T08:50:14.553Z,4.60
2023-04-23T08:52:46.704Z,3.75
2023-04-23T08:57:42.677Z,6.53
2023-04-23T09:00:11.902Z,5.10
2023-04-23T09:02:44.597Z,4.53
2023-04-23T09:05:12.045Z,4.47
2023-04-23T09:07:38.979Z,4.75
2023-04-23T09:10:07.450Z,4.80
2023-04-23T09:12:38.886Z,4.78
2023-04-23T09:15:12.998Z,4.90
2023-04-23T09:17:41.878Z,4.25
2023-04-23T09:20:09.760Z,4.38
2023-04-23T09:22:47.070Z,5.53
2023-04-23T09:25:16.772Z,4.75
2023-04-23T09:27:43.835Z,5.03
2023-04-23T09:30:11.826Z,4.88
2023-04-23T09:32:41.735Z,4.85
2023-04-23T09:35:11.243Z,4.53
2023-04-23T09:37:43.179Z,3.63
2023-04-23T09:40:13.475Z,4.20
2023-04-23T09:42:40.235Z,3.53
2023-04-23T09:45:09.270Z,4.25
2023-04-23T09:47:39.365Z,4.07
2023-04-23T09:50:07.489Z,3.97
2023-04-23T09:52:38.424Z,4.28
2023-04-23T09:55:05.794Z,3.50
2023-04-23T09:57:41.428Z,3.60
2023-04-23T10:00:19.961Z,4.90
2023-04-23T10:02:49.341Z,4.55
2023-04-23T10:05:24.742Z,3.70
2023-04-23T10:07:52.933Z,4.75
2023-04-23T10:10:20.599Z,3.72
2023-04-23T10:12:54.815Z,3.47
2023-04-23T10:15:23.749Z,3.30
2023-04-23T10:17:51.626Z,3.60
2023-04-23T10:20:22.234Z,4.90
2023-04-23T10:22:49.604Z,3.88
2023-04-23T10:25:16.525Z,3.55
2023-04-23T10:27:53.263Z,3.65
2023-04-23T10:30:22.274Z,3.13
2023-04-23T10:32:50.777Z,3.33
2023-04-23T10:35:17.890Z,2.97
2023-04-23T10:37:47.173Z,3.72
2023-04-23T10:40:16.489Z,3.58
2023-04-23T10:42:44.897Z,3.70
2023-04-23T10:45:24.170Z,3.63
2023-04-23T10:47:55.486Z,3.20
2023-04-23T10:50:24.359Z,2.78
2023-04-23T10:52:54.032Z,3.00
2023-04-23T10:55:23.217Z,3.03
2023-04-23T10:58:04.115Z,3.25
2023-04-23T11:00:51.660Z,2.95
2023-04-23T11:03:32.516Z,2.90
2023-04-23T11:06:04.081Z,2.70
2023-04-23T11:08:34.218Z,2.63
2023-04-23T11:11:03.025Z,3.00
2023-04-23T11:13:30.291Z,2.47
2023-04-23T11:16:23.857Z,2.90
2023-04-23T11:18:56.744Z,2.38
2023-04-23T11:21:23.551Z,2.75
2023-04-23T11:23:50.163Z,2.95
2023-04-23T11:26:20.938Z,2.17
2023-04-23T11:28:52.436Z,2.90
2023-04-23T11:31:20.043Z,2.78
2023-04-23T11:33:46.684Z,3.05
2023-04-23T11:36:15.717Z,3.95
2023-04-23T11:38:42.319Z,2.72
2023-04-23T11:41:08.917Z,1.98
2023-04-23T11:43:36.546Z,1.90
2023-04-23T11:46:03.236Z,2.42
2023-04-23T11:48:29.919Z,2.30
2023-04-23T11:50:56.612Z,2.28
2023-04-23T11:53:24.079Z,2.28
2023-04-23T11:55:51.054Z,2.25
2023-04-23T11:58:18.161Z,1.67
2023-04-23T12:00:44.847Z,2.05
2023-04-23T12:03:13.972Z,2.20
2023-04-23T12:05:42.769Z,1.60
2023-04-23T12:08:28.851Z,2.00
2023-04-23T12:11:00.600Z,1.90
2023-04-23T12:13:32.235Z,1.92
2023-04-23T12:16:01.862Z,2.03
2023-04-23T12:18:40.362Z,2.38
2023-04-23T12:21:12.408Z,1.45
2023-04-23T12:23:40.539Z,1.88
2023-04-23T12:26:11.988Z,2.10
2023-04-23T12:28:59.216Z,2.08
2023-04-23T12:31:28.092Z,1.67
2023-04-23T12:33:59.560Z,1.90
2023-04-23T12:36:29.600Z,2.20
2023-04-23T12:39:16.308Z,1.77
2023-04-23T12:41:43.105Z,1.83
2023-04-23T12:44:09.877Z,2.03
2023-04-23T12:46:36.461Z,2.47
2023-04-23T12:49:03.138Z,1.90
2023-04-23T12:51:29.734Z,1.92
2023-04-23T12:53:56.362Z,1.85
2023-04-23T12:56:23.020Z,1.88
2023-04-23T12:58:49.697Z,2.10
2023-04-23T13:01:16.513Z,1.65
2023-04-23T13:03:43.453Z,1.77
2023-04-23T13:06:10.091Z,1.60
2023-04-23T13:08:36.847Z,1.75
2023-04-23T13:11:03.562Z,2.20
2023-04-23T13:13:30.417Z,1.88
2023-04-23T13:15:57.364Z,1.70
2023-04-23T13:18:24.085Z,2.53
2023-04-23T13:20:50.707Z,1.60
2023-04-23T13:23:17.270Z,1.88
2023-04-23T13:25:43.908Z,1.88
2023-04-23T13:28:10.671Z,1.70
2023-04-23T13:30:37.269Z,1.70
2023-04-23T13:33:04.091Z,1.52
2023-04-23T13:35:30.922Z,1.70
2023-04-23T13:37:59.137Z,1.60
2023-04-23T13:40:25.826Z,2.05
2023-04-23T13:42:55.007Z,2.17
2023-04-23T13:45:21.772Z,1.80
2023-04-23T13:47:48.472Z,2.25
2023-04-23T13:50:15.264Z,1.88
2023-04-23T13:52:42.216Z,1.65
2023-04-23T13:55:09.970Z,1.83
2023-04-23T13:57:38.168Z,1.65
2023-04-23T14:00:05.572Z,1.58
2023-04-23T14:02:32.317Z,1.38
2023-04-23T14:04:58.976Z,1.25
2023-04-23T14:07:25.800Z,1.52
2023-04-23T14:09:52.959Z,1.42
2023-04-23T14:12:20.383Z,1.52
2023-04-23T14:14:48.169Z,1.45
2023-04-23T14:17:14.954Z,1.58
2023-04-23T14:19:41.793Z,1.77
2023-04-23T14:22:08.688Z,1.65
2023-04-23T14:24:40.365Z,1.40
2023-04-23T14:27:06.980Z,1.25
2023-04-23T14:29:52.565Z,1.88
2023-04-23T14:32:19.152Z,1.60
2023-04-23T14:34:45.870Z,2.00
2023-04-23T14:37:13.028Z,1.52
2023-04-23T14:39:41.219Z,1.30
2023-04-23T14:42:08.104Z,1.40
2023-04-23T14:44:34.807Z,1.50
2023-04-23T14:47:01.626Z,1.55
2023-04-23T14:49:28.271Z,1.83
2023-04-23T14:51:54.977Z,2.03
2023-04-23T14:54:22.812Z,1.52
2023-04-23T14:56:50.998Z,1.67
2023-04-23T14:59:18.010Z,1.55
2023-04-23T15:01:45.012Z,1.40
2023-04-23T15:04:11.902Z,1.35
2023-04-23T15:06:40.513Z,1.42
2023-04-23T15:09:07.189Z,2.05
2023-04-23T15:11:33.945Z,2.08
2023-04-23T15:14:30.916Z,1.20
2023-04-23T15:16:57.664Z,1.80
2023-04-23T15:19:24.778Z,2.10
2023-04-23T15:21:51.426Z,2.60
2023-04-23T15:24:18.107Z,1.83
2023-04-23T15:26:48.899Z,2.28
2023-04-23T15:29:15.778Z,3.00
2023-04-23T15:31:42.606Z,2.22
2023-04-23T15:34:09.698Z,2.60
2023-04-23T15:36:37.730Z,2.90
2023-04-23T15:39:04.875Z,2.47
2023-04-23T15:41:31.633Z,2.65
2023-04-23T15:43:58.589Z,2.70
2023-04-23T15:46:25.690Z,2.45
2023-04-23T15:48:52.320Z,2.65
2023-04-23T15:51:19.100Z,2.40
2023-04-23T15:53:45.870Z,2.25
2023-04-23T15:56:12.545Z,2.30
2023-04-23T15:58:39.175Z,2.63
2023-04-23T16:01:07.499Z,2.60
2023-04-23T16:03:34.611Z,2.70
2023-04-23T16:06:01.917Z,2.58
2023-04-23T16:08:29.070Z,2.70
2023-04-23T16:10:57.137Z,3.50
2023-04-23T16:13:24.956Z,3.30
2023-04-23T16:15:51.618Z,2.80
2023-04-23T16:18:18.338Z,2.90
2023-04-23T16:20:45.055Z,3.08
2023-04-23T16:23:11.852Z,3.55
2023-04-23T16:25:38.900Z,3.13
2023-04-23T16:28:06.209Z,1.98
2023-04-23T16:30:32.932Z,2.70
2023-04-23T16:32:59.670Z,2.88
2023-04-23T16:35:26.625Z,2.63
2023-04-23T16:37:53.376Z,2.42
2023-04-23T16:40:21.130Z,3.55
2023-04-23T16:42:48.913Z,3.90
2023-04-23T16:45:15.901Z,3.63
2023-04-23T16:47:43.751Z,3.50
2023-04-23T16:50:11.088Z,3.30
2023-04-23T16:52:37.783Z,3.38
2023-04-23T16:55:05.644Z,3.28
2023-04-23T16:59:41.748Z,3.30
2023-04-23T17:02:08.686Z,3.65
2023-04-23T17:04:35.795Z,3.22
2023-04-23T17:07:02.662Z,3.65
2023-04-23T17:09:33.117Z,3.67
2023-04-23T17:12:00.085Z,3.60
2023-04-23T17:14:27.824Z,3.80
2023-04-23T17:16:54.472Z,3.33
2023-04-23T17:19:21.246Z,3.67
2023-04-23T17:21:48.007Z,3.22
2023-04-23T17:24:14.698Z,3.30
2023-04-23T17:26:41.644Z,3.78
2023-04-23T17:29:08.471Z,4.22
2023-04-23T17:31:37.686Z,3.83
2023-04-23T17:34:05.299Z,4.78
2023-04-23T17:36:32.247Z,3.85
2023-04-23T17:38:59.290Z,3.78
2023-04-23T17:41:26.230Z,3.78
2023-04-23T17:43:53.376Z,4.20
2023-04-23T17:46:20.286Z,3.83
2023-04-23T17:48:47.299Z,4.03
2023-04-23T17:51:14.112Z,3.55
2023-04-23T17:53:42.610Z,4.63
2023-04-23T17:56:10.356Z,4.55
2023-04-23T17:58:38.410Z,4.03
2023-04-23T18:01:07.285Z,4.50
2023-04-23T18:03:34.414Z,3.47
2023-04-23T18:06:01.522Z,3.83
2023-04-23T18:08:28.629Z,3.65
2023-04-23T18:10:55.608Z,4.10
2023-04-23T18:13:22.639Z,4.10
2023-04-23T18:15:50.370Z,4.28
2023-04-23T18:18:18.302Z,4.15
2023-04-23T18:20:46.442Z,4.78
2023-04-23T18:23:14.421Z,4.47
2023-04-23T18:25:42.242Z,5.05
2023-04-23T18:28:09.550Z,4.63
2023-04-23T18:30:38.277Z,4.65
2023-04-23T18:33:25.198Z,5.95
2023-04-23T18:35:56.529Z,4.82
2023-04-23T18:38:36.315Z,4.47
2023-04-23T18:41:04.825Z,5.20
2023-04-23T18:43:32.440Z,5.65
2023-04-23T18:45:59.582Z,5.10
2023-04-23T18:48:41.673Z,4.07
2023-04-23T18:51:23.096Z,4.80
2023-04-23T18:53:50.054Z,5.28
2023-04-23T18:56:17.103Z,5.10
2023-04-23T18:58:44.147Z,5.30
2023-04-23T19:01:11.205Z,5.78
2023-04-23T19:03:38.470Z,6.97
2023-04-23T19:06:08.003Z,5.90
2023-04-23T19:08:35.899Z,6.28
2023-04-23T19:11:03.781Z,6.28
2023-04-23T19:13:30.908Z,5.43
2023-04-23T19:15:57.821Z,5.25
2023-04-23T19:18:24.767Z,5.70
2023-04-23T19:20:52.945Z,6.05
2023-04-23T19:23:20.484Z,5.07
2023-04-23T19:25:48.248Z,5.10
2023-04-23T19:28:15.198Z,5.93
2023-04-23T19:30:42.227Z,6.18
2023-04-23T19:33:09.229Z,5.95
2023-04-23T19:35:39.361Z,6.68
2023-04-23T19:38:07.131Z,6.88
2023-04-23T19:40:34.237Z,5.80
2023-04-23T19:43:01.472Z,5.75
2023-04-23T19:45:30.216Z,4.88
2023-04-23T19:47:57.572Z,4.85
2023-04-23T19:50:26.420Z,5.05
2023-04-23T19:52:53.481Z,5.70
2023-04-23T19:55:22.434Z,6.25
2023-04-23T19:57:49.093Z,5.95
2023-04-23T20:00:17.023Z,6.07
2023-04-23T20:02:44.180Z,6.95
2023-04-23T20:05:11.483Z,6.50
2023-04-23T20:07:39.083Z,5.28
2023-04-23T20:10:07.093Z,5.13
2023-04-23T20:12:34.972Z,4.80
2023-04-23T20:15:02.275Z,5.10
2023-04-23T20:17:30.246Z,5.57
2023-04-23T20:20:33.673Z,6.10
2023-04-23T20:23:00.936Z,6.32
2023-04-23T20:25:43.442Z,6.53
2023-04-23T20:30:48.574Z,4.60
2023-04-23T20:33:16.255Z,4.82
2023-04-23T20:35:43.138Z,5.35
2023-04-23T20:38:10.339Z,4.90
2023-04-23T20:40:38.655Z,4.45
2023-04-23T20:43:05.537Z,5.55
2023-04-23T20:45:34.258Z,4.70
2023-04-23T20:48:03.401Z,4.85
2023-04-23T20:50:31.272Z,5.13
2023-04-23T20:52:58.109Z,5.75
2023-04-23T20:55:24.843Z,5.10
2023-04-23T20:57:52.017Z,4.20
2023-04-23T21:00:20.512Z,4.07
2023-04-23T21:02:47.436Z,4.57
2023-04-23T21:05:14.551Z,4.05
2023-04-23T21:07:43.310Z,3.28
2023-04-23T21:10:11.025Z,4.03
2023-04-23T21:12:38.261Z,5.05
2023-04-23T21:15:05.630Z,3.70
2023-04-23T21:17:33.775Z,4.10
2023-04-23T21:20:00.910Z,4.35
2023-04-23T21:22:27.851Z,3.88
2023-04-23T21:24:54.840Z,4.07
2023-04-23T21:27:22.184Z,3.65
2023-04-23T21:29:49.683Z,3.33
2023-04-23T21:32:16.904Z,3.88
2023-04-23T21:34:43.752Z,3.53
2023-04-23T21:37:10.697Z,4.22
2023-04-23T21:39:37.854Z,3.65
2023-04-23T21:42:05.524Z,3.28
2023-04-23T21:44:33.038Z,3.38
2023-04-23T21:46:59.900Z,3.03
2023-04-23T21:49:27.823Z,3.70
2023-04-23T21:51:54.833Z,3.33
2023-04-23T21:54:21.675Z,5.82
2023-04-23T21:56:48.404Z,6.85
2023-04-23T21:59:15.089Z,7.13
2023-04-23T22:01:42.078Z,7.13
2023-04-23T22:04:08.884Z,7.28
2023-04-23T22:06:35.665Z,6.50
2023-04-23T22:09:02.847Z,6.45
2023-04-23T22:11:31.443Z,5.50
2023-04-23T22:13:59.219Z,6.85
2023-04-23T22:16:29.142Z,6.30
2023-04-23T22:19:00.618Z,6.45
2023-04-23T22:21:28.368Z,6.75
2023-04-23T22:23:56.028Z,6.82
2023-04-23T22:26:22.991Z,7.07
2023-04-23T22:28:49.961Z,6.63
2023-04-23T22:31:17.441Z,6.45
2023-04-23T22:33:44.359Z,6.32
2023-04-23T22:36:11.521Z,5.18
2023-04-23T22:38:38.661Z,5.85
2023-04-23T22:41:06.204Z,6.00
2023-04-23T22:43:33.142Z,4.53
2023-04-23T22:46:00.355Z,4.80
2023-04-23T22:48:28.039Z,5.05
2023-04-23T22:50:55.749Z,5.22
2023-04-23T22:53:22.454Z,3.65
2023-04-23T22:55:49.862Z,4.18
2023-04-23T22:58:20.490Z,4.18
2023-04-23T23:00:52.449Z,3.78
2023-04-23T23:03:19.965Z,3.00
2023-04-23T23:05:51.759Z,3.30
2023-04-23T23:08:18.789Z,4.45
2023-04-23T23:10:46.131Z,4.50
2023-04-23T23:13:13.087Z,3.65
2023-04-23T23:15:40.363Z,4.00
2023-04-23T23:18:11.816Z,3.53
2023-04-23T23:20:40.438Z,4.53
2023-04-23T23:23:07.128Z,3.90
2023-04-23T23:25:38.510Z,4.00
2023-04-23T23:28:05.611Z,4.55
2023-04-23T23:30:32.779Z,4.15
2023-04-23T23:32:59.776Z,3.45
2023-04-23T23:35:26.653Z,4.03
2023-04-23T23:37:53.392Z,4.32
2023-04-23T23:40:20.168Z,3.88
2023-04-23T23:42:47.715Z,4.15
2023-04-23T23:45:14.567Z,3.47
2023-04-23T23:47:41.727Z,4.32
2023-04-23T23:50:08.978Z,3.85
2023-04-23T23:52:35.866Z,3.90
2023-04-23T23:55:02.866Z,6.30
2023-04-23T23:57:29.719Z,4.05
2023-04-23T23:59:57.017Z,3.42
